»·PEaware :: WAT462 KSEA-KDEN

WAT462 :: KSEA-KDEN

FLIGHT INFORMATION

Flight Status: Arrived
Operator:
Walker Air Transport
More flights by this operator :: More flights under this callsign
Pilot: Andrew C. (32327)
Aircraft: BOEING 737-800
(B738)
More flights by this aircraft type
Origin: KSEA Seattle-Tacoma Intl
United States
Destination: KDEN Denver Intl
United States
More flights between these airports :: More routes between these airports
Route: SEA7 NORMY J90 MWH DOXIE WYS TOFUU FLATI2
File this flight plan on PilotEdge
Remarks: RMK / SIMBRIEF
Altitude:
(Current/Filed)
31,000ft
Speed:
(Current/Filed)
417kts
Departed: 06-Feb-21 01:23 PM
Arrived: 06-Feb-21 03:14 PM
Distance/Time
Traveled:
888nm/1:50
Distance/Time
To Go:
Arrived

Flight Plot

Page will automatically refresh every two minutes.

Flight plan parsing failed; only flown route is shown


Map Options




Map Legend


Flown Route
Filed Route
Departure Airport
Arrival Airport
Navaid (VOR, NDB)
Fix

Horizontal Profiles

Position Reports

Time Latitude Longitude Heading Altitude Ground
Speed
06-Feb-21 13:01 47.447643 -122.302324 41 399ft 0kts
06-Feb-21 13:03 47.447643 -122.302324 41 399ft 0kts
06-Feb-21 13:04 47.447643 -122.302324 41 399ft 0kts
06-Feb-21 13:05 47.447643 -122.302324 41 399ft 0kts
06-Feb-21 13:06 47.447643 -122.302325 41 398ft 0kts
06-Feb-21 13:07 47.447643 -122.302325 41 398ft 0kts
06-Feb-21 13:08 47.447643 -122.302325 41 398ft 0kts
06-Feb-21 13:09 47.447643 -122.302325 41 398ft 0kts
06-Feb-21 13:10 47.447643 -122.302325 41 398ft 0kts
06-Feb-21 13:11 47.447643 -122.302325 41 398ft 0kts
06-Feb-21 13:12 47.447643 -122.302325 41 398ft 0kts
06-Feb-21 13:13 47.447643 -122.302325 41 398ft 0kts
06-Feb-21 13:14 47.447643 -122.302325 41 398ft 0kts
06-Feb-21 13:15 47.447496 -122.302515 41 398ft 2kts
06-Feb-21 13:16 47.447030 -122.302833 339 397ft 2kts
06-Feb-21 13:17 47.446860 -122.302633 309 396ft 0kts
06-Feb-21 13:18 47.446860 -122.302633 309 396ft 0kts
06-Feb-21 13:18 47.447702 -122.304590 280 401ft 10kts
06-Feb-21 13:20 47.451541 -122.306235 359 419ft 15kts
06-Feb-21 13:21 47.456766 -122.306214 1 440ft 25kts
06-Feb-21 13:21 47.463307 -122.306151 358 423ft 19kts
06-Feb-21 13:22 47.445120 -122.307603 182 571ft 166kts
06-Feb-21 13:23 47.387530 -122.311866 185 2999ft 244kts
06-Feb-21 13:24 47.326827 -122.272624 105 6200ft 299kts
06-Feb-21 13:25 47.343992 -122.150255 69 9316ft 319kts
06-Feb-21 13:26 47.371466 -122.014217 68 11183ft 378kts
06-Feb-21 13:27 47.402031 -121.860661 67 13897ft 398kts
06-Feb-21 13:28 47.433070 -121.699595 74 16382ft 424kts
06-Feb-21 13:29 47.428145 -121.518064 84 18591ft 453kts
06-Feb-21 13:30 47.424586 -121.327117 84 20641ft 470kts
06-Feb-21 13:31 47.421471 -121.130119 84 22432ft 488kts
06-Feb-21 13:32 47.417948 -120.926587 84 24116ft 503kts
06-Feb-21 13:33 47.413925 -120.715846 83 25809ft 513kts
06-Feb-21 13:34 47.408747 -120.501786 90 27300ft 530kts
06-Feb-21 13:35 47.380307 -120.283869 97 28713ft 546kts
06-Feb-21 13:36 47.344116 -120.062862 98 29891ft 557kts
06-Feb-21 13:37 47.305673 -119.840559 98 30851ft 563kts
06-Feb-21 13:38 47.266304 -119.617913 98 30854ft 558kts
06-Feb-21 13:39 47.226467 -119.396275 101 30852ft 560kts
06-Feb-21 13:40 47.167934 -119.181412 110 30852ft 567kts
06-Feb-21 13:41 47.103826 -118.968196 111 30858ft 569kts
06-Feb-21 13:42 47.038324 -118.755353 111 30880ft 570kts
06-Feb-21 13:43 46.971986 -118.542367 111 30881ft 569kts
06-Feb-21 13:44 46.905723 -118.331522 112 30880ft 569kts
06-Feb-21 13:45 46.839310 -118.121186 112 30894ft 570kts
06-Feb-21 13:46 46.772185 -117.910998 112 30896ft 572kts
06-Feb-21 13:47 46.704207 -117.700046 112 30889ft 571kts
06-Feb-21 13:48 46.636361 -117.491244 112 30890ft 571kts
06-Feb-21 13:49 46.567551 -117.280925 113 30890ft 572kts
06-Feb-21 13:50 46.498087 -117.069984 113 30887ft 573kts
06-Feb-21 13:51 46.428736 -116.861600 113 30863ft 574kts
06-Feb-21 13:52 46.358983 -116.653766 112 30863ft 574kts
06-Feb-21 13:53 46.288618 -116.445802 112 30862ft 573kts
06-Feb-21 13:54 46.217636 -116.237161 113 30863ft 573kts
06-Feb-21 13:55 46.146771 -116.030610 113 30881ft 572kts
06-Feb-21 13:56 46.075410 -115.824558 113 30916ft 572kts
06-Feb-21 13:57 46.003141 -115.617571 113 30917ft 574kts
06-Feb-21 13:58 45.931074 -115.412772 113 30918ft 570kts
06-Feb-21 13:59 45.858103 -115.207411 118 30914ft 572kts
06-Feb-21 14:00 45.791128 -115.001705 103 30870ft 567kts
06-Feb-21 14:01 45.736894 -114.789577 105 30853ft 568kts
06-Feb-21 14:02 45.680369 -114.577305 105 30852ft 571kts
06-Feb-21 14:03 45.622731 -114.364292 105 30853ft 572kts
06-Feb-21 14:04 45.564849 -114.151658 106 30825ft 575kts
06-Feb-21 14:05 45.506092 -113.938447 106 30778ft 575kts
06-Feb-21 14:06 45.446729 -113.725157 105 30801ft 574kts
06-Feb-21 14:07 45.387144 -113.512974 106 30808ft 573kts
06-Feb-21 14:08 45.327359 -113.301758 106 30807ft 571kts
06-Feb-21 14:09 45.267494 -113.091439 107 30807ft 571kts
06-Feb-21 14:10 45.207253 -112.882252 107 30748ft 570kts
06-Feb-21 14:11 45.146220 -112.672217 107 30707ft 571kts
06-Feb-21 14:12 45.085210 -112.464058 107 30712ft 571kts
06-Feb-21 14:13 45.023648 -112.255326 108 30723ft 570kts
06-Feb-21 14:14 44.962494 -112.049597 107 30733ft 568kts
06-Feb-21 14:15 44.900690 -111.843766 107 30742ft 571kts
06-Feb-21 14:16 44.838363 -111.638001 107 30743ft 570kts
06-Feb-21 14:17 44.775490 -111.432107 107 30743ft 569kts
06-Feb-21 14:18 44.712456 -111.227209 110 30742ft 571kts
06-Feb-21 14:19 44.610825 -111.052521 135 30741ft 580kts
06-Feb-21 14:20 44.494799 -110.896780 138 30736ft 580kts
06-Feb-21 14:21 44.375984 -110.743503 138 30739ft 580kts
06-Feb-21 14:22 44.255845 -110.590422 138 30743ft 582kts
06-Feb-21 14:23 44.135598 -110.438318 138 30744ft 583kts
06-Feb-21 14:24 44.014807 -110.286230 138 30743ft 584kts
06-Feb-21 14:25 43.893529 -110.134308 138 30742ft 585kts
06-Feb-21 14:26 43.771574 -109.982687 138 30727ft 585kts
06-Feb-21 14:27 43.649245 -109.831517 138 30679ft 585kts
06-Feb-21 14:28 43.527320 -109.681707 138 30679ft 584kts
06-Feb-21 14:29 43.405898 -109.533362 138 30679ft 583kts
06-Feb-21 14:30 43.283830 -109.385063 138 30689ft 582kts
06-Feb-21 14:31 43.162578 -109.238202 139 30708ft 580kts
06-Feb-21 14:32 43.041661 -109.092754 139 30776ft 581kts
06-Feb-21 14:33 42.920141 -108.947514 139 30702ft 581kts
06-Feb-21 14:34 42.798177 -108.802567 139 30698ft 581kts
06-Feb-21 14:35 42.676151 -108.658336 139 30701ft 581kts
06-Feb-21 14:36 42.554522 -108.515352 138 30714ft 579kts
06-Feb-21 14:37 42.432404 -108.372562 138 30716ft 581kts
06-Feb-21 14:38 42.310066 -108.229913 139 30716ft 580kts
06-Feb-21 14:39 42.187380 -108.087854 139 30746ft 582kts
06-Feb-21 14:40 42.064711 -107.946679 139 30771ft 581kts
06-Feb-21 14:42 41.941156 -107.805259 139 30792ft 582kts
06-Feb-21 14:43 41.814542 -107.669303 142 30798ft 581kts
06-Feb-21 14:44 41.705663 -107.509759 128 30798ft 578kts
06-Feb-21 14:45 41.598706 -107.348389 129 30798ft 577kts
06-Feb-21 14:46 41.490488 -107.187319 129 30798ft 576kts
06-Feb-21 14:47 41.382599 -107.028947 130 30826ft 575kts
06-Feb-21 14:48 41.273664 -106.869895 129 30849ft 574kts
06-Feb-21 14:49 41.166114 -106.713220 129 30826ft 575kts
06-Feb-21 14:50 41.058082 -106.556566 129 30826ft 574kts
06-Feb-21 14:51 40.949975 -106.400598 129 30826ft 575kts
06-Feb-21 14:52 40.846952 -106.239976 117 30825ft 557kts
06-Feb-21 14:53 40.777061 -106.057962 107 30828ft 550kts
06-Feb-21 14:54 40.711916 -105.875732 107 30822ft 545kts
06-Feb-21 14:55 40.646607 -105.694692 107 30853ft 547kts
06-Feb-21 14:56 40.581761 -105.515993 108 28580ft 542kts
06-Feb-21 14:57 40.518299 -105.341912 112 24083ft 513kts
06-Feb-21 14:58 40.446568 -105.192194 135 20877ft 453kts
06-Feb-21 14:58 40.374185 -105.108122 143 19829ft 396kts
06-Feb-21 15:00 40.275760 -105.010522 146 17850ft 376kts
06-Feb-21 15:01 40.192056 -104.932787 151 16442ft 365kts
06-Feb-21 15:01 40.116187 -104.886549 160 15178ft 356kts
06-Feb-21 15:02 40.026314 -104.835891 160 13733ft 347kts
06-Feb-21 15:03 39.936569 -104.805790 184 12344ft 323kts
06-Feb-21 15:04 39.849799 -104.807266 185 11454ft 295kts
06-Feb-21 15:05 39.772330 -104.809260 185 10993ft 260kts
06-Feb-21 15:06 39.701760 -104.810678 182 10060ft 255kts
06-Feb-21 15:07 39.663093 -104.746972 88 8181ft 249kts
06-Feb-21 15:08 39.673148 -104.670435 36 8021ft 209kts
06-Feb-21 15:09 39.724790 -104.661719 358 7482ft 169kts
06-Feb-21 15:10 39.770666 -104.661204 357 6571ft 157kts
06-Feb-21 15:11 39.815684 -104.660641 358 5702ft 163kts
06-Feb-21 15:12 39.849102 -104.660395 358 5396ft 57kts
06-Feb-21 15:13 39.859067 -104.662338 359 5388ft 23kts
06-Feb-21 15:14 39.860210 -104.669755 270 5380ft 18kts
06-Feb-21 15:15 39.859361 -104.670793 180 5380ft 0kts
06-Feb-21 15:16 39.859361 -104.670793 180 5380ft 0kts
06-Feb-21 15:17 39.859361 -104.670793 180 5380ft 0kts
06-Feb-21 15:18 39.859361 -104.670793 180 5380ft 0kts
06-Feb-21 15:19 39.859361 -104.670793 180 5380ft 0kts

Navigation Log

Ident Type
Flight plan parsing failed, navigation log unavailable